createdAt,value
2018-03-21T00:00:15.970Z,97.25
2018-03-21T00:01:15.888Z,97.34
2018-03-21T00:02:15.887Z,97.44
2018-03-21T00:03:16.045Z,97.53
2018-03-21T00:04:15.754Z,97.53
2018-03-21T00:05:15.723Z,98.38
2018-03-21T00:06:15.677Z,98.10
2018-03-21T00:07:15.645Z,98.66
2018-03-21T00:08:15.576Z,98.76
2018-03-21T00:09:15.553Z,99.42
2018-03-21T00:10:15.527Z,99.33
2018-03-21T00:11:15.449Z,99.99
2018-03-21T00:12:15.406Z,99.99
2018-03-21T00:13:15.393Z,99.99
2018-03-21T00:14:15.328Z,99.99
2018-03-21T00:15:15.314Z,99.99
2018-03-21T00:16:15.248Z,99.99
2018-03-21T00:17:15.213Z,99.99
2018-03-21T00:18:15.186Z,99.99
2018-03-21T00:19:15.134Z,99.99
2018-03-21T00:20:15.088Z,99.99
2018-03-21T00:21:15.027Z,99.99
2018-03-21T00:22:15.022Z,99.99
2018-03-21T00:23:14.955Z,99.99
2018-03-21T00:24:14.904Z,99.99
2018-03-21T00:25:14.924Z,99.99
2018-03-21T00:26:14.846Z,99.99
2018-03-21T00:27:14.802Z,99.99
2018-03-21T00:28:14.748Z,99.99
2018-03-21T00:29:14.713Z,99.99
2018-03-21T00:30:14.667Z,99.99
2018-03-21T00:31:14.623Z,99.99
2018-03-21T00:32:14.574Z,99.99
2018-03-21T00:33:14.553Z,99.99
2018-03-21T00:34:14.484Z,99.99
2018-03-21T00:35:14.443Z,99.99
2018-03-21T00:36:14.427Z,99.99
2018-03-21T00:37:14.365Z,99.99
2018-03-21T00:38:14.320Z,99.99
2018-03-21T00:39:14.285Z,99.99
2018-03-21T00:40:14.235Z,99.99
2018-03-21T00:41:14.213Z,99.99
2018-03-21T00:42:14.170Z,99.99
2018-03-21T00:43:14.134Z,99.99
2018-03-21T00:44:14.062Z,99.99
2018-03-21T00:45:14.017Z,99.99
2018-03-21T00:46:13.985Z,99.99
2018-03-21T00:47:13.935Z,99.99
2018-03-21T00:48:13.887Z,99.99
2018-03-21T00:49:13.852Z,99.99
2018-03-21T00:50:13.826Z,99.99
2018-03-21T00:51:13.760Z,99.99
2018-03-21T00:52:13.728Z,99.99
2018-03-21T00:53:13.687Z,99.99
2018-03-21T00:54:13.648Z,99.99
2018-03-21T00:55:13.592Z,99.99
2018-03-21T00:56:13.555Z,99.99
2018-03-21T00:57:13.529Z,99.99
2018-03-21T00:58:13.550Z,99.99
2018-03-21T00:59:13.426Z,99.99
2018-03-21T01:00:13.400Z,99.99
2018-03-21T01:01:13.346Z,99.99
2018-03-21T01:02:13.358Z,99.99
2018-03-21T01:03:13.256Z,99.99
2018-03-21T01:04:13.228Z,99.99
2018-03-21T01:05:13.171Z,99.99
2018-03-21T01:06:13.150Z,99.99
2018-03-21T01:07:13.095Z,99.99
2018-03-21T01:08:13.044Z,99.99
2018-03-21T01:09:13.028Z,99.99
2018-03-21T01:10:12.959Z,99.99
2018-03-21T01:11:12.916Z,99.99
2018-03-21T01:12:12.895Z,99.99
2018-03-21T01:13:12.839Z,99.99
2018-03-21T01:14:12.789Z,99.99
2018-03-21T01:15:12.752Z,99.99
2018-03-21T01:16:12.718Z,99.99
2018-03-21T01:17:12.686Z,99.99
2018-03-21T01:18:12.663Z,99.99
2018-03-21T01:19:12.597Z,99.99
2018-03-21T01:20:12.541Z,99.99
2018-03-21T01:21:12.499Z,99.99
2018-03-21T01:22:12.479Z,99.99
2018-03-21T01:23:12.464Z,99.99
2018-03-21T01:24:12.370Z,99.99
2018-03-21T01:25:12.328Z,99.99
2018-03-21T01:26:12.283Z,99.99
2018-03-21T01:27:12.241Z,99.99
2018-03-21T01:28:12.219Z,99.99
2018-03-21T01:29:12.177Z,99.99
2018-03-21T01:30:12.127Z,99.99
2018-03-21T01:31:12.129Z,99.99
2018-03-21T01:32:12.032Z,99.99
2018-03-21T01:33:11.986Z,99.99
2018-03-21T01:34:11.993Z,99.99
2018-03-21T01:35:11.902Z,99.99
2018-03-21T01:36:11.873Z,99.99
2018-03-21T01:37:11.820Z,99.99
2018-03-21T01:38:11.800Z,99.99
2018-03-21T01:39:11.734Z,99.99
2018-03-21T01:40:11.694Z,99.99
2018-03-21T01:41:11.645Z,99.99
2018-03-21T01:42:11.603Z,99.99
2018-03-21T01:43:11.594Z,99.99
2018-03-21T01:44:11.543Z,99.99
2018-03-21T01:45:11.491Z,99.99
2018-03-21T01:46:12.021Z,99.99
2018-03-21T01:47:11.404Z,99.99
2018-03-21T01:48:11.350Z,99.99
2018-03-21T01:49:11.315Z,99.99
2018-03-21T01:50:11.274Z,99.99
2018-03-21T01:51:11.262Z,99.99
2018-03-21T01:52:11.184Z,99.99
2018-03-21T01:53:11.134Z,99.99
2018-03-21T01:54:11.123Z,99.99
2018-03-21T01:55:11.106Z,99.99
2018-03-21T01:56:11.042Z,99.99
2018-03-21T01:57:10.977Z,99.99
2018-03-21T01:58:10.932Z,99.99
2018-03-21T01:59:10.913Z,99.99
2018-03-21T02:00:10.836Z,99.99
2018-03-21T02:01:10.811Z,99.99
2018-03-21T02:02:10.757Z,99.99
2018-03-21T02:03:10.712Z,99.99
2018-03-21T02:04:10.706Z,99.99
2018-03-21T02:05:10.627Z,99.99
2018-03-21T02:06:10.606Z,99.99
2018-03-21T02:07:10.544Z,99.99
2018-03-21T02:08:10.522Z,99.99
2018-03-21T02:09:10.491Z,99.99
2018-03-21T02:10:10.427Z,99.99
2018-03-21T02:11:10.413Z,99.99
2018-03-21T02:12:10.369Z,99.99
2018-03-21T02:13:10.296Z,99.99
2018-03-21T02:14:10.273Z,99.99
2018-03-21T02:15:10.226Z,99.99
2018-03-21T02:16:10.162Z,99.99
2018-03-21T02:17:10.132Z,99.99
2018-03-21T02:18:10.098Z,99.99
2018-03-21T02:19:10.027Z,99.99
2018-03-21T02:20:09.990Z,99.99
2018-03-21T02:21:09.964Z,99.99
2018-03-21T02:22:09.903Z,99.99
2018-03-21T02:23:09.889Z,99.99
2018-03-21T02:24:09.848Z,99.99
2018-03-21T02:25:09.831Z,99.99
2018-03-21T02:26:09.748Z,99.99
2018-03-21T02:27:09.709Z,99.99
2018-03-21T02:28:09.654Z,99.99
2018-03-21T02:29:09.607Z,99.99
2018-03-21T02:30:09.608Z,99.99
2018-03-21T02:31:09.549Z,99.99
2018-03-21T02:32:09.503Z,99.99
2018-03-21T02:33:09.455Z,99.99
2018-03-21T02:34:09.469Z,99.99
2018-03-21T02:35:09.373Z,99.99
2018-03-21T02:36:09.330Z,99.99
2018-03-21T02:37:09.268Z,99.99
2018-03-21T02:38:09.245Z,99.99
2018-03-21T02:39:09.192Z,99.99
2018-03-21T02:40:09.160Z,99.99
2018-03-21T02:41:09.111Z,99.99
2018-03-21T02:42:09.068Z,99.99
2018-03-21T02:43:09.024Z,99.99
2018-03-21T02:44:08.983Z,99.99
2018-03-21T02:45:08.964Z,99.99
2018-03-21T02:46:08.910Z,99.99
2018-03-21T02:47:08.840Z,99.99
2018-03-21T02:48:08.832Z,99.99
2018-03-21T02:49:08.762Z,99.99
2018-03-21T02:50:08.736Z,99.99
2018-03-21T02:51:08.678Z,99.99
2018-03-21T02:52:08.655Z,99.99
2018-03-21T02:53:08.610Z,99.99
2018-03-21T02:54:08.556Z,99.99
2018-03-21T02:55:08.559Z,99.99
2018-03-21T02:56:08.455Z,99.99
2018-03-21T02:57:08.532Z,99.99
2018-03-21T02:58:08.374Z,99.99
2018-03-21T02:59:08.369Z,99.99
2018-03-21T03:00:08.289Z,99.99
2018-03-21T03:01:08.246Z,99.99
2018-03-21T03:02:08.237Z,99.99
2018-03-21T03:03:08.161Z,99.99
2018-03-21T03:04:08.167Z,99.99
2018-03-21T03:05:08.118Z,99.99
2018-03-21T03:06:08.067Z,99.99
2018-03-21T03:07:07.989Z,99.99
2018-03-21T03:08:07.968Z,99.99
2018-03-21T03:09:07.900Z,99.99
2018-03-21T03:10:07.872Z,99.99
2018-03-21T03:11:07.856Z,99.99
2018-03-21T03:12:09.183Z,99.99
2018-03-21T03:13:07.737Z,99.99
2018-03-21T03:14:07.719Z,99.99
2018-03-21T03:15:07.666Z,99.99
2018-03-21T03:16:07.608Z,99.99
2018-03-21T03:17:07.612Z,99.99
2018-03-21T03:18:08.308Z,99.99
2018-03-21T03:19:07.479Z,99.99
2018-03-21T03:20:07.480Z,99.99
2018-03-21T03:21:07.419Z,99.99
2018-03-21T03:22:07.375Z,99.99
2018-03-21T03:23:07.308Z,99.99
2018-03-21T03:24:07.270Z,99.99
2018-03-21T03:25:07.236Z,99.99
2018-03-21T03:26:07.182Z,99.99
2018-03-21T03:27:07.209Z,99.99
2018-03-21T03:28:07.098Z,99.99
2018-03-21T03:29:07.081Z,99.99
2018-03-21T03:30:07.028Z,99.99
2018-03-21T03:31:06.997Z,99.99
2018-03-21T03:32:06.925Z,99.99
2018-03-21T03:33:06.936Z,99.99
2018-03-21T03:34:06.839Z,99.99
2018-03-21T03:35:06.841Z,99.99
2018-03-21T03:36:06.756Z,99.99
2018-03-21T03:37:06.766Z,99.99
2018-03-21T03:38:06.681Z,99.99
2018-03-21T03:39:06.636Z,99.99
2018-03-21T03:40:06.611Z,99.99
2018-03-21T03:41:06.539Z,99.99
2018-03-21T03:42:06.508Z,99.99
2018-03-21T03:43:06.469Z,99.99
2018-03-21T03:44:06.438Z,99.99
2018-03-21T03:45:06.372Z,99.99
2018-03-21T03:46:06.335Z,99.99
2018-03-21T03:47:06.285Z,99.99
2018-03-21T03:48:06.244Z,99.99
2018-03-21T03:49:06.319Z,99.99
2018-03-21T03:50:06.166Z,99.99
2018-03-21T03:51:06.139Z,99.99
2018-03-21T03:52:06.068Z,99.99
2018-03-21T03:53:06.031Z,99.99
2018-03-21T03:54:05.996Z,99.99
2018-03-21T03:55:05.944Z,99.99
2018-03-21T03:56:05.902Z,99.99
2018-03-21T03:57:05.879Z,99.99
2018-03-21T03:58:05.852Z,99.99
2018-03-21T03:59:05.800Z,99.99
2018-03-21T04:00:05.731Z,99.99
2018-03-21T04:01:05.752Z,99.99
2018-03-21T04:02:05.718Z,99.99
2018-03-21T04:03:05.614Z,99.99
2018-03-21T04:04:05.572Z,99.99
2018-03-21T04:05:05.545Z,99.99
2018-03-21T04:06:05.497Z,99.99
2018-03-21T04:07:05.434Z,99.99
2018-03-21T04:08:05.390Z,99.99
2018-03-21T04:09:05.351Z,99.99
2018-03-21T04:10:05.301Z,99.99
2018-03-21T04:11:05.274Z,99.99
2018-03-21T04:12:05.243Z,99.99
2018-03-21T04:13:05.180Z,99.99
2018-03-21T04:14:05.133Z,99.99
2018-03-21T04:15:05.105Z,99.99
2018-03-21T04:16:05.059Z,99.99
2018-03-21T04:17:05.007Z,99.99
2018-03-21T04:18:04.961Z,99.99
2018-03-21T04:19:04.921Z,99.99
2018-03-21T04:20:04.881Z,99.99
2018-03-21T04:21:04.844Z,99.99
2018-03-21T04:22:04.804Z,99.99
2018-03-21T04:23:04.751Z,99.99
2018-03-21T04:24:04.707Z,99.99
2018-03-21T04:25:04.662Z,99.99
2018-03-21T04:26:04.656Z,99.99
2018-03-21T04:27:04.606Z,99.99
2018-03-21T04:28:04.588Z,99.99
2018-03-21T04:29:04.504Z,99.99
2018-03-21T04:30:04.452Z,99.99
2018-03-21T04:31:04.426Z,99.99
2018-03-21T04:32:04.364Z,99.99
2018-03-21T04:33:04.686Z,99.99
2018-03-21T04:34:04.313Z,99.99
2018-03-21T04:35:04.240Z,99.99
2018-03-21T04:36:04.209Z,99.99
2018-03-21T04:37:04.194Z,99.99
2018-03-21T04:38:04.111Z,99.99
2018-03-21T04:39:04.093Z,99.99
2018-03-21T04:40:04.035Z,99.99
2018-03-21T04:41:03.999Z,99.99
2018-03-21T04:42:03.964Z,99.99
2018-03-21T04:43:03.923Z,99.99
2018-03-21T04:44:03.906Z,99.99
2018-03-21T04:45:03.827Z,99.99
2018-03-21T04:46:03.764Z,99.99
2018-03-21T04:47:03.730Z,99.99
2018-03-21T04:48:03.724Z,99.99
2018-03-21T04:49:03.666Z,99.99
2018-03-21T04:50:03.635Z,99.99
2018-03-21T04:51:03.563Z,99.99
2018-03-21T04:52:03.519Z,99.99
2018-03-21T04:53:03.521Z,99.99
2018-03-21T04:54:03.496Z,99.99
2018-03-21T04:55:03.378Z,99.99
2018-03-21T04:56:03.346Z,99.99
2018-03-21T04:57:03.320Z,99.99
2018-03-21T04:58:03.257Z,99.99
2018-03-21T04:59:03.219Z,99.99
2018-03-21T05:00:03.193Z,99.99
2018-03-21T05:01:03.163Z,99.99
2018-03-21T05:02:03.083Z,99.99
2018-03-21T05:03:03.055Z,99.99
2018-03-21T05:04:03.009Z,99.99
2018-03-21T05:05:03.008Z,99.99
2018-03-21T05:06:02.961Z,99.99
2018-03-21T05:07:02.879Z,99.99
2018-03-21T05:08:02.828Z,99.99
2018-03-21T05:09:02.799Z,99.99
2018-03-21T05:10:02.825Z,99.99
2018-03-21T05:11:02.729Z,99.99
2018-03-21T05:12:02.688Z,99.99
2018-03-21T05:13:02.624Z,99.99
2018-03-21T05:14:02.588Z,99.99
2018-03-21T05:15:02.542Z,99.99
2018-03-21T05:16:02.499Z,99.99
2018-03-21T05:17:02.445Z,99.99
2018-03-21T05:18:02.414Z,99.99
2018-03-21T05:19:02.367Z,99.99
2018-03-21T05:20:02.306Z,99.99
2018-03-21T05:21:02.285Z,99.99
2018-03-21T05:22:02.223Z,99.99
2018-03-21T05:23:02.182Z,99.99
2018-03-21T05:24:02.169Z,99.99
2018-03-21T05:25:02.134Z,99.99
2018-03-21T05:26:02.053Z,99.99
2018-03-21T05:27:02.026Z,99.99
2018-03-21T05:28:02.003Z,99.99
2018-03-21T05:29:01.961Z,99.99
2018-03-21T05:30:01.902Z,99.99
2018-03-21T05:31:01.845Z,99.99
2018-03-21T05:32:01.828Z,99.99
2018-03-21T05:33:01.808Z,99.99
2018-03-21T05:34:01.712Z,99.99
2018-03-21T05:35:01.690Z,99.99
2018-03-21T05:36:01.671Z,99.99
2018-03-21T05:37:01.578Z,99.99
2018-03-21T05:38:01.542Z,99.99
2018-03-21T05:39:01.495Z,99.99
2018-03-21T05:40:01.447Z,99.99
2018-03-21T05:41:01.413Z,99.99
2018-03-21T05:42:01.395Z,99.99
2018-03-21T05:43:01.340Z,99.99
2018-03-21T05:44:01.284Z,99.99
2018-03-21T05:45:01.238Z,99.99
2018-03-21T05:46:01.203Z,99.99
2018-03-21T05:47:01.154Z,99.99
2018-03-21T05:48:01.145Z,99.99
2018-03-21T05:49:01.068Z,99.99
2018-03-21T05:50:01.046Z,99.99
2018-03-21T05:51:00.987Z,99.99
2018-03-21T05:52:00.936Z,99.99
2018-03-21T05:53:00.895Z,99.99
2018-03-21T05:54:00.852Z,99.99
2018-03-21T05:55:00.809Z,99.99
2018-03-21T05:56:00.781Z,99.99
2018-03-21T05:57:00.726Z,99.99
2018-03-21T05:58:00.688Z,99.99
2018-03-21T05:59:00.637Z,99.99
2018-03-21T06:00:00.596Z,99.99
2018-03-21T06:01:00.553Z,99.99
2018-03-21T06:02:00.504Z,99.99
2018-03-21T06:03:00.466Z,99.99
2018-03-21T06:04:00.424Z,99.99
2018-03-21T06:05:00.383Z,99.99
2018-03-21T06:06:00.341Z,99.99
2018-03-21T06:07:00.297Z,99.99
2018-03-21T06:08:00.254Z,99.99
2018-03-21T06:09:00.212Z,99.99
2018-03-21T06:10:00.167Z,99.99
2018-03-21T06:11:00.126Z,99.99
2018-03-21T06:12:00.087Z,99.99
2018-03-21T06:13:00.041Z,99.99
2018-03-21T06:14:00.061Z,99.99
2018-03-21T06:14:59.955Z,99.99
2018-03-21T06:15:59.913Z,99.99
2018-03-21T06:16:59.869Z,99.99
2018-03-21T06:17:59.829Z,99.99
2018-03-21T06:18:59.786Z,99.99
2018-03-21T06:19:59.745Z,99.99
2018-03-21T06:20:59.700Z,99.99
2018-03-21T06:22:00.291Z,99.99
2018-03-21T06:22:59.618Z,99.99
2018-03-21T06:23:59.576Z,99.99
2018-03-21T06:24:59.534Z,99.99
2018-03-21T06:25:59.491Z,99.99
2018-03-21T06:26:59.450Z,99.99
2018-03-21T06:27:59.412Z,99.99
2018-03-21T06:28:59.364Z,99.99
2018-03-21T06:29:59.323Z,99.99
2018-03-21T06:30:59.277Z,99.99
2018-03-21T06:31:59.238Z,99.99
2018-03-21T06:32:59.211Z,99.99
2018-03-21T06:33:59.156Z,99.99
2018-03-21T06:34:59.112Z,99.99
2018-03-21T06:35:59.074Z,99.99
2018-03-21T06:36:59.034Z,99.99
2018-03-21T06:37:58.989Z,99.99
2018-03-21T06:38:58.944Z,99.99
2018-03-21T06:39:58.903Z,99.99
2018-03-21T06:40:58.864Z,99.99
2018-03-21T06:41:58.819Z,99.99
2018-03-21T06:42:58.777Z,99.99
2018-03-21T06:43:58.736Z,99.99
2018-03-21T06:44:58.695Z,99.99
2018-03-21T06:45:58.654Z,99.99
2018-03-21T06:46:58.609Z,99.99
2018-03-21T06:47:58.568Z,99.99
2018-03-21T06:48:58.527Z,99.99
2018-03-21T06:49:58.483Z,99.99
2018-03-21T06:50:58.445Z,99.99
2018-03-21T06:51:58.399Z,99.99
2018-03-21T06:52:58.359Z,99.99
2018-03-21T06:53:58.316Z,99.99
2018-03-21T06:54:58.273Z,99.99
2018-03-21T06:55:58.229Z,99.99
2018-03-21T06:56:58.191Z,99.99
2018-03-21T06:57:58.147Z,99.99
2018-03-21T06:58:58.107Z,99.99
2018-03-21T06:59:58.064Z,99.99
2018-03-21T07:00:58.056Z,99.99
2018-03-21T07:01:57.978Z,99.99
2018-03-21T07:02:57.938Z,99.99
2018-03-21T07:03:58.201Z,99.99
2018-03-21T07:04:57.855Z,99.99
2018-03-21T07:05:57.812Z,99.99
2018-03-21T07:06:57.911Z,99.99
2018-03-21T07:07:57.730Z,99.99
2018-03-21T07:08:57.690Z,99.99
2018-03-21T07:09:57.644Z,99.99
2018-03-21T07:10:57.609Z,99.99
2018-03-21T07:11:57.567Z,99.99
2018-03-21T07:12:57.520Z,99.99
2018-03-21T07:13:57.478Z,99.99
2018-03-21T07:14:57.434Z,99.99
2018-03-21T07:15:57.411Z,99.99
2018-03-21T07:16:57.355Z,99.99
2018-03-21T07:17:57.309Z,99.99
2018-03-21T07:18:57.267Z,99.99
2018-03-21T07:19:57.228Z,99.99
2018-03-21T07:20:57.183Z,99.99
2018-03-21T07:21:57.141Z,99.99
2018-03-21T07:22:57.097Z,99.99
2018-03-21T07:23:57.060Z,99.99
2018-03-21T07:24:57.020Z,99.99
2018-03-21T07:25:56.974Z,99.99
2018-03-21T07:26:56.931Z,99.99
2018-03-21T07:27:56.894Z,99.99
2018-03-21T07:28:56.850Z,99.99
2018-03-21T07:29:56.808Z,99.99
2018-03-21T07:30:56.764Z,99.99
2018-03-21T07:31:56.724Z,99.99
2018-03-21T07:32:56.704Z,99.99
2018-03-21T07:33:56.684Z,99.99
2018-03-21T07:34:56.599Z,99.99
2018-03-21T07:35:56.558Z,99.99
2018-03-21T07:36:56.515Z,99.99
2018-03-21T07:37:56.501Z,99.99
2018-03-21T07:38:56.443Z,99.99
2018-03-21T07:39:56.392Z,99.99
2018-03-21T07:40:56.377Z,99.99
2018-03-21T07:41:56.310Z,99.99
2018-03-21T07:42:56.272Z,99.99
2018-03-21T07:43:56.240Z,99.99
2018-03-21T07:44:56.184Z,99.99
2018-03-21T07:45:56.139Z,99.99
2018-03-21T07:46:56.098Z,99.99
2018-03-21T07:47:56.060Z,99.99
2018-03-21T07:48:56.017Z,99.99
2018-03-21T07:49:55.976Z,99.99
2018-03-21T07:50:55.933Z,99.99
2018-03-21T07:51:55.896Z,99.99
2018-03-21T07:52:55.852Z,99.99
2018-03-21T07:53:55.810Z,99.99
2018-03-21T07:54:55.770Z,99.99
2018-03-21T07:55:55.729Z,99.99
2018-03-21T07:56:55.686Z,99.99
2018-03-21T07:57:55.688Z,99.99
2018-03-21T07:58:55.602Z,99.99
2018-03-21T07:59:55.563Z,99.99
2018-03-21T08:00:55.516Z,99.99
2018-03-21T08:01:55.482Z,99.99
2018-03-21T08:02:55.715Z,99.99
2018-03-21T08:03:55.395Z,99.99
2018-03-21T08:04:55.356Z,99.99
2018-03-21T08:05:55.314Z,99.99
2018-03-21T08:06:55.275Z,99.99
2018-03-21T08:07:55.232Z,99.99
2018-03-21T08:08:55.190Z,99.99
2018-03-21T08:09:55.151Z,99.99
2018-03-21T08:10:55.111Z,99.99
2018-03-21T08:11:55.072Z,99.99
2018-03-21T08:12:55.028Z,99.99
2018-03-21T08:13:54.984Z,99.99
2018-03-21T08:14:54.944Z,99.99
2018-03-21T08:15:54.903Z,99.99
2018-03-21T08:16:54.863Z,99.99
2018-03-21T08:17:54.823Z,99.99
2018-03-21T08:18:54.782Z,99.99
2018-03-21T08:19:54.736Z,99.99
2018-03-21T08:20:54.702Z,99.99
2018-03-21T08:21:54.656Z,99.99
2018-03-21T08:22:54.616Z,99.99
2018-03-21T08:23:54.573Z,99.99
2018-03-21T08:24:54.536Z,99.99
2018-03-21T08:25:54.491Z,99.99
2018-03-21T08:26:54.448Z,99.99
2018-03-21T08:27:54.416Z,99.99
2018-03-21T08:28:54.368Z,99.99
2018-03-21T08:29:54.329Z,99.99
2018-03-21T08:30:54.289Z,99.99
2018-03-21T08:31:54.244Z,99.99
2018-03-21T08:32:54.205Z,99.99
2018-03-21T08:33:54.162Z,99.99
2018-03-21T08:34:54.121Z,99.99
2018-03-21T08:35:54.093Z,99.99
2018-03-21T08:36:54.041Z,99.99
2018-03-21T08:37:54.001Z,99.99
2018-03-21T08:38:53.983Z,99.99
2018-03-21T08:39:53.925Z,99.99
2018-03-21T08:40:53.878Z,99.99
2018-03-21T08:41:53.835Z,99.99
2018-03-21T08:42:53.792Z,99.99
2018-03-21T08:43:53.753Z,99.99
2018-03-21T08:44:53.710Z,99.99
2018-03-21T08:45:53.673Z,99.99
2018-03-21T08:46:53.640Z,99.99
2018-03-21T08:47:53.595Z,99.99
2018-03-21T08:48:53.551Z,99.99
2018-03-21T08:49:53.509Z,99.99
2018-03-21T08:50:53.470Z,99.99
2018-03-21T08:51:53.434Z,99.99
2018-03-21T08:52:53.390Z,99.99
2018-03-21T08:53:53.347Z,99.99
2018-03-21T08:54:53.307Z,99.99
2018-03-21T08:55:53.265Z,99.99
2018-03-21T08:56:53.224Z,99.99
2018-03-21T08:57:53.184Z,99.99
2018-03-21T08:58:53.145Z,99.99
2018-03-21T08:59:53.179Z,99.99
2018-03-21T09:00:53.070Z,99.99
2018-03-21T09:01:53.024Z,99.99
2018-03-21T09:02:53.000Z,99.99
2018-03-21T09:03:52.943Z,99.99
2018-03-21T09:04:53.494Z,99.99
2018-03-21T09:05:52.862Z,99.99
2018-03-21T09:06:52.823Z,99.99
2018-03-21T09:07:52.780Z,99.99
2018-03-21T09:08:52.744Z,99.99
2018-03-21T09:09:52.706Z,99.99
2018-03-21T09:10:52.661Z,99.99
2018-03-21T09:11:52.621Z,99.99
2018-03-21T09:12:52.578Z,99.99
2018-03-21T09:13:52.542Z,99.99
2018-03-21T09:14:52.512Z,99.99
2018-03-21T09:15:52.461Z,99.99
2018-03-21T09:16:52.421Z,99.99
2018-03-21T09:17:52.379Z,99.99
2018-03-21T09:18:52.342Z,99.99
2018-03-21T09:19:52.301Z,99.99
2018-03-21T09:20:52.263Z,99.99
2018-03-21T09:21:52.220Z,99.99
2018-03-21T09:22:52.181Z,99.99
2018-03-21T09:23:52.153Z,99.99
2018-03-21T09:24:52.100Z,99.99
2018-03-21T09:25:52.055Z,99.99
2018-03-21T09:26:52.019Z,99.99
2018-03-21T09:27:51.981Z,99.99
2018-03-21T09:28:51.942Z,99.99
2018-03-21T09:29:51.900Z,99.99
2018-03-21T09:30:51.866Z,99.99
2018-03-21T09:31:51.819Z,99.99
2018-03-21T09:32:51.781Z,99.99
2018-03-21T09:33:51.741Z,99.99
2018-03-21T09:34:51.704Z,99.99
2018-03-21T09:35:51.662Z,99.99
2018-03-21T09:36:51.625Z,99.99
2018-03-21T09:37:51.582Z,99.99
2018-03-21T09:38:51.549Z,99.99
2018-03-21T09:39:51.504Z,99.99
2018-03-21T09:40:51.479Z,99.99
2018-03-21T09:41:51.424Z,99.99
2018-03-21T09:42:51.387Z,99.99
2018-03-21T09:43:51.344Z,99.99
2018-03-21T09:44:51.307Z,99.99
2018-03-21T09:45:51.265Z,99.99
2018-03-21T09:46:51.226Z,99.99
2018-03-21T09:47:51.191Z,99.99
2018-03-21T09:48:51.147Z,99.99
2018-03-21T09:49:51.108Z,99.99
2018-03-21T09:50:51.070Z,99.99
2018-03-21T09:51:51.048Z,99.99
2018-03-21T09:52:50.991Z,99.99
2018-03-21T09:53:50.952Z,99.99
2018-03-21T09:54:50.913Z,99.99
2018-03-21T09:55:50.876Z,99.99
2018-03-21T09:56:50.839Z,99.99
2018-03-21T09:57:50.794Z,99.99
2018-03-21T09:58:50.754Z,99.99
2018-03-21T09:59:50.715Z,99.99
2018-03-21T10:00:50.676Z,99.99
2018-03-21T10:01:50.637Z,99.99
2018-03-21T10:02:50.596Z,99.99
2018-03-21T10:03:50.558Z,99.99
2018-03-21T10:04:50.519Z,99.99
2018-03-21T10:05:50.478Z,99.99
2018-03-21T10:06:50.439Z,99.99
2018-03-21T10:07:50.403Z,99.99
2018-03-21T10:08:50.360Z,99.99
2018-03-21T10:09:50.323Z,99.99
2018-03-21T10:10:50.283Z,99.99
2018-03-21T10:11:50.244Z,99.99
2018-03-21T10:12:50.216Z,99.99
2018-03-21T10:13:50.166Z,99.99
2018-03-21T10:14:50.126Z,99.99
2018-03-21T10:15:50.116Z,99.99
2018-03-21T10:16:50.051Z,99.99
2018-03-21T10:17:50.011Z,99.99
2018-03-21T10:18:49.969Z,99.99
2018-03-21T10:19:49.933Z,99.99
2018-03-21T10:20:49.894Z,99.25
2018-03-21T10:21:49.856Z,99.06
2018-03-21T10:22:49.817Z,99.53
2018-03-21T10:23:49.794Z,98.96
2018-03-21T10:24:49.741Z,98.87
2018-03-21T10:25:49.702Z,98.30
2018-03-21T10:26:49.662Z,98.39
2018-03-21T10:27:49.625Z,99.82
2018-03-21T10:28:49.586Z,99.34
2018-03-21T10:29:49.545Z,98.58
2018-03-21T10:30:49.510Z,98.02
2018-03-21T10:31:49.472Z,97.73
2018-03-21T10:32:49.436Z,97.02
2018-03-21T10:33:49.393Z,95.93
2018-03-21T10:34:49.359Z,96.50
2018-03-21T10:35:49.317Z,96.69
2018-03-21T10:36:49.292Z,96.36
2018-03-21T10:37:49.237Z,97.40
2018-03-21T10:38:49.228Z,97.07
2018-03-21T10:39:50.132Z,97.59
2018-03-21T10:40:49.127Z,97.45
2018-03-21T10:41:49.089Z,96.97
2018-03-21T10:42:49.050Z,97.35
2018-03-21T10:43:49.012Z,96.69
2018-03-21T10:44:48.973Z,97.54
2018-03-21T10:45:48.935Z,98.39
2018-03-21T10:46:48.897Z,98.87
2018-03-21T10:47:48.855Z,98.30
2018-03-21T10:48:48.854Z,97.83
2018-03-21T10:49:48.780Z,98.49
2018-03-21T10:50:48.816Z,98.39
2018-03-21T10:51:48.706Z,97.92
2018-03-21T10:52:48.667Z,98.30
2018-03-21T10:53:48.627Z,98.02
2018-03-21T10:54:48.589Z,98.30
2018-03-21T10:55:48.552Z,97.64
2018-03-21T10:56:48.512Z,97.45
2018-03-21T10:57:48.472Z,96.88
2018-03-21T10:58:48.434Z,96.50
2018-03-21T10:59:48.408Z,97.02
2018-03-21T11:00:48.365Z,97.45
2018-03-21T11:01:48.318Z,97.16
2018-03-21T11:02:48.278Z,98.11
2018-03-21T11:03:48.245Z,99.06
2018-03-21T11:04:48.202Z,99.25
2018-03-21T11:05:48.166Z,99.25
2018-03-21T11:06:48.129Z,99.15
2018-03-21T11:07:48.086Z,99.99
2018-03-21T11:08:48.048Z,99.72
2018-03-21T11:09:48.006Z,99.15
2018-03-21T11:10:47.970Z,99.25
2018-03-21T11:11:47.932Z,99.63
2018-03-21T11:12:47.897Z,99.72
2018-03-21T11:13:47.853Z,99.99
2018-03-21T11:14:47.811Z,99.99
2018-03-21T11:15:47.777Z,99.99
2018-03-21T11:16:47.736Z,99.99
2018-03-21T11:17:47.703Z,99.99
2018-03-21T11:18:47.659Z,99.99
2018-03-21T11:19:47.622Z,99.99
2018-03-21T11:20:47.585Z,99.99
2018-03-21T11:21:47.541Z,99.99
2018-03-21T11:22:47.505Z,99.99
2018-03-21T11:23:47.465Z,99.99
2018-03-21T11:24:47.425Z,99.99
2018-03-21T11:25:47.386Z,99.99
2018-03-21T11:26:47.349Z,99.99
2018-03-21T11:27:47.309Z,99.99
2018-03-21T11:28:47.272Z,99.99
2018-03-21T11:29:47.231Z,99.99
2018-03-21T11:30:47.189Z,99.99
2018-03-21T11:31:47.151Z,99.99
2018-03-21T11:32:47.114Z,99.99
2018-03-21T11:33:47.073Z,99.99
2018-03-21T11:34:47.036Z,99.99
2018-03-21T11:35:46.999Z,99.99
2018-03-21T11:36:46.963Z,99.99
2018-03-21T11:37:46.917Z,99.99
2018-03-21T11:38:46.880Z,99.99
2018-03-21T11:39:46.842Z,99.99
2018-03-21T11:40:46.801Z,99.99
2018-03-21T11:41:46.760Z,99.99
2018-03-21T11:42:46.724Z,99.99
2018-03-21T11:43:46.681Z,99.99
2018-03-21T11:44:46.645Z,99.99
2018-03-21T11:45:46.611Z,99.99
2018-03-21T11:46:46.566Z,99.99
2018-03-21T11:47:46.529Z,99.99
2018-03-21T11:48:46.497Z,99.99
2018-03-21T11:49:46.452Z,99.99
2018-03-21T11:50:46.413Z,99.99
2018-03-21T11:51:46.371Z,99.49
2018-03-21T11:52:46.334Z,99.49
2018-03-21T11:53:46.297Z,99.49
2018-03-21T11:54:46.257Z,99.01
2018-03-21T11:55:46.219Z,97.78
2018-03-21T11:56:46.183Z,96.03
2018-03-21T11:57:46.143Z,91.75
2018-03-21T11:58:46.109Z,84.33
2018-03-21T11:59:46.074Z,76.42
2018-03-21T12:00:46.038Z,70.59
2018-03-21T12:01:46.003Z,64.81
2018-03-21T12:02:45.968Z,60.17
2018-03-21T12:03:45.935Z,58.14
2018-03-21T12:04:45.909Z,54.82
2018-03-21T12:05:45.874Z,52.75
2018-03-21T12:06:45.842Z,52.05
2018-03-21T12:07:45.811Z,50.84
2018-03-21T12:08:45.836Z,50.21
2018-03-21T12:09:45.749Z,47.85
2018-03-21T12:10:45.721Z,45.38
2018-03-21T12:11:45.693Z,44.62
2018-03-21T12:12:45.665Z,44.21
2018-03-21T12:13:45.632Z,44.07
2018-03-21T12:14:45.553Z,45.67
2018-03-21T12:15:45.521Z,47.85
2018-03-21T12:16:45.495Z,48.04
2018-03-21T12:17:45.469Z,47.78
2018-03-21T12:18:45.441Z,47.11
2018-03-21T12:19:45.410Z,47.23
2018-03-21T12:20:45.384Z,47.11
2018-03-21T12:21:45.814Z,47.20
2018-03-21T12:22:45.378Z,48.30
2018-03-21T12:23:45.357Z,50.47
2018-03-21T12:24:45.321Z,51.43
2018-03-21T12:25:45.288Z,50.98
2018-03-21T12:26:45.268Z,50.31
2018-03-21T12:27:45.234Z,49.95
2018-03-21T12:28:45.208Z,49.73
2018-03-21T12:29:45.174Z,50.24
2018-03-21T12:30:45.144Z,50.31
2018-03-21T12:31:45.114Z,50.31
2018-03-21T12:32:45.090Z,51.33
2018-03-21T12:33:45.054Z,51.71
2018-03-21T12:34:45.030Z,52.55
2018-03-21T12:35:44.999Z,53.56
2018-03-21T12:36:44.961Z,54.43
2018-03-21T12:37:44.938Z,54.14
2018-03-21T12:38:44.902Z,55.09
2018-03-21T12:39:44.888Z,55.44
2018-03-21T12:40:44.843Z,55.73
2018-03-21T12:41:44.811Z,56.11
2018-03-21T12:42:44.779Z,56.21
2018-03-21T12:43:44.750Z,56.49
2018-03-21T12:44:44.768Z,56.49
2018-03-21T12:45:44.687Z,55.73
2018-03-21T12:46:44.652Z,55.00
2018-03-21T12:47:44.623Z,53.97
2018-03-21T12:48:44.592Z,52.03
2018-03-21T12:49:44.561Z,50.26
2018-03-21T12:50:44.532Z,48.09
2018-03-21T12:51:44.502Z,46.17